createdAt,value
2022-11-02T00:01:54.304Z,14.5
2022-11-02T00:04:41.940Z,14.9
2022-11-02T00:07:29.481Z,13.7
2022-11-02T00:10:17.180Z,14
2022-11-02T00:13:06.147Z,15.4
2022-11-02T00:15:53.947Z,21.2
2022-11-02T00:18:41.996Z,15.7
2022-11-02T00:21:33.544Z,18.3
2022-11-02T00:24:22.908Z,17
2022-11-02T00:27:10.640Z,14.9
2022-11-02T00:29:58.231Z,20.8
2022-11-02T00:32:46.612Z,16.5
2022-11-02T00:35:35.181Z,15.1
2022-11-02T00:38:24.374Z,12.9
2022-11-02T00:41:13.164Z,17.7
2022-11-02T00:44:02.342Z,15.4
2022-11-02T00:46:50.269Z,15.6
2022-11-02T00:49:37.965Z,14.7
2022-11-02T00:52:26.350Z,13.9
2022-11-02T00:55:14.929Z,16.6
2022-11-02T00:58:03.582Z,16.4
2022-11-02T01:00:51.593Z,15
2022-11-02T01:03:41.168Z,14
2022-11-02T01:06:28.895Z,12.9
2022-11-02T01:09:16.469Z,15
2022-11-02T01:12:04.168Z,14.6
2022-11-02T01:14:52.332Z,16
2022-11-02T01:17:39.907Z,22.1
2022-11-02T01:20:27.830Z,17.7
2022-11-02T01:23:15.526Z,19.8
2022-11-02T01:26:03.101Z,14.6
2022-11-02T01:28:52.701Z,14.6
2022-11-02T01:31:40.587Z,15.6
2022-11-02T01:34:28.599Z,14.6
2022-11-02T01:37:16.204Z,14.2
2022-11-02T01:40:03.967Z,13.6
2022-11-02T01:42:53.380Z,15
2022-11-02T01:45:41.332Z,13.7
2022-11-02T01:48:28.991Z,15.4
2022-11-02T01:51:19.132Z,13.7
2022-11-02T01:54:10.829Z,14.8
2022-11-02T01:57:01.413Z,12.6
2022-11-02T01:59:53.495Z,14
2022-11-02T02:02:47.704Z,12.4
2022-11-02T02:05:40.722Z,13.5
2022-11-02T02:08:31.508Z,14.4
2022-11-02T02:11:24.074Z,12.2
2022-11-02T02:14:15.222Z,15.2
2022-11-02T02:17:05.221Z,10.8
2022-11-02T02:20:08.178Z,11.9
2022-11-02T02:23:12.011Z,11.5
2022-11-02T02:26:20.131Z,12.1
2022-11-02T02:29:45.865Z,11.6
2022-11-02T02:32:43.703Z,12.4
2022-11-02T02:35:39.480Z,11.3
2022-11-02T02:38:32.732Z,13.4
2022-11-02T02:41:28.228Z,10.9
2022-11-02T02:44:24.031Z,11.1
2022-11-02T02:47:16.966Z,11.7
2022-11-02T02:50:08.883Z,13.3
2022-11-02T02:53:02.932Z,12
2022-11-02T02:55:53.232Z,10.4
2022-11-02T02:58:43.756Z,12.6
2022-11-02T03:01:37.707Z,11.6
2022-11-02T03:04:27.919Z,14.7
2022-11-02T03:07:15.849Z,11
2022-11-02T03:10:08.473Z,12.6
2022-11-02T03:13:01.939Z,10.5
2022-11-02T03:16:01.699Z,14.5
2022-11-02T03:18:56.978Z,12.2
2022-11-02T03:21:53.691Z,12.2
2022-11-02T03:24:48.493Z,24.1
2022-11-02T03:27:44.952Z,26.8
2022-11-02T03:30:40.665Z,27.2
2022-11-02T03:33:31.869Z,24.1
2022-11-02T03:36:23.504Z,33.5
2022-11-02T03:39:18.664Z,31.7
2022-11-02T03:42:14.212Z,30.6
2022-11-02T03:45:07.247Z,29.1
2022-11-02T03:47:59.675Z,37.8
2022-11-02T03:50:51.515Z,25
2022-11-02T03:53:40.687Z,37
2022-11-02T03:56:34.868Z,35.9
2022-11-02T03:59:27.352Z,36.3
2022-11-02T04:02:16.749Z,36.4
2022-11-02T04:05:04.931Z,30.3
2022-11-02T04:07:58.329Z,27
2022-11-02T04:11:20.393Z,30.9
2022-11-02T04:14:39.450Z,32.2
2022-11-02T04:17:27.410Z,30.5
2022-11-02T04:20:46.881Z,26.3
2022-11-02T04:23:35.202Z,23.7
2022-11-02T04:26:54.879Z,25.6
2022-11-02T04:29:42.543Z,25.2
2022-11-02T04:32:30.327Z,27.9
2022-11-02T04:35:54.945Z,18.6
2022-11-02T04:38:45.245Z,29.8
2022-11-02T04:41:32.806Z,24.2
2022-11-02T04:44:28.983Z,49
2022-11-02T04:47:16.870Z,21.8
2022-11-02T04:50:04.797Z,28.7
2022-11-02T04:52:53.313Z,28.4
2022-11-02T04:55:42.302Z,22.2
2022-11-02T04:58:31.930Z,26.9
2022-11-02T05:01:19.550Z,31.2
2022-11-02T05:04:09.692Z,17.5
2022-11-02T05:07:01.286Z,22.5
2022-11-02T05:09:52.171Z,19.4
2022-11-02T05:12:39.903Z,24.4
2022-11-02T05:15:27.609Z,23.3
2022-11-02T05:18:18.805Z,26.7
2022-11-02T05:21:06.903Z,20.4
2022-11-02T05:23:55.871Z,33.5
2022-11-02T05:26:43.398Z,32.6
2022-11-02T05:29:32.728Z,25.2
2022-11-02T05:32:20.398Z,18.8
2022-11-02T05:35:07.991Z,27.3
2022-11-02T05:37:55.563Z,20.4
2022-11-02T05:40:43.656Z,24.8
2022-11-02T05:43:37.369Z,26.1
2022-11-02T05:46:24.909Z,29.9
2022-11-02T05:49:13.378Z,27.8
2022-11-02T05:52:01.115Z,27.8
2022-11-02T05:54:48.972Z,28.2
2022-11-02T05:57:36.721Z,32.6
2022-11-02T06:00:24.422Z,32.8
2022-11-02T06:03:12.971Z,34.1
2022-11-02T06:06:02.089Z,32.7
2022-11-02T06:08:52.911Z,31.6
2022-11-02T06:11:40.587Z,40.3
2022-11-02T06:14:28.402Z,35.8
2022-11-02T06:17:15.983Z,30.6
2022-11-02T06:20:03.827Z,31.5
2022-11-02T06:22:53.255Z,31.9
2022-11-02T06:25:40.834Z,30.7
2022-11-02T06:28:29.134Z,34.3
2022-11-02T06:31:16.876Z,27
2022-11-02T06:34:04.469Z,30.8
2022-11-02T06:36:52.230Z,24.6
2022-11-02T06:39:44.956Z,30.7
2022-11-02T06:42:36.904Z,27.5
2022-11-02T06:45:32.624Z,31.2
2022-11-02T06:48:20.731Z,25.1
2022-11-02T06:51:08.555Z,27.6
2022-11-02T06:53:56.186Z,25.4
2022-11-02T06:56:43.785Z,27.8
2022-11-02T06:59:31.913Z,22
2022-11-02T07:02:19.651Z,22
2022-11-02T07:05:07.235Z,18.9
2022-11-02T07:07:54.968Z,20.4
2022-11-02T07:10:42.715Z,20.9
2022-11-02T07:13:30.439Z,20.9
2022-11-02T07:16:18.029Z,18.5
2022-11-02T07:19:05.605Z,18.3
2022-11-02T07:21:53.514Z,15.5
2022-11-02T07:24:41.193Z,17
2022-11-02T07:27:28.777Z,15.4
2022-11-02T07:30:16.237Z,15
2022-11-02T07:33:04.903Z,18.6
2022-11-02T07:35:52.683Z,16.3
2022-11-02T07:38:40.275Z,15.5
2022-11-02T07:41:28.305Z,14.9
2022-11-02T07:44:16.584Z,17.3
2022-11-02T07:47:04.176Z,15.2
2022-11-02T07:49:51.763Z,14
2022-11-02T07:52:39.380Z,14.9
2022-11-02T07:55:31.954Z,17.6
2022-11-02T07:58:19.564Z,14.5
2022-11-02T08:01:07.775Z,21.1
2022-11-02T08:03:55.313Z,13
2022-11-02T08:06:43.665Z,14.8
2022-11-02T08:09:31.410Z,12.5
2022-11-02T08:12:32.744Z,14.3
2022-11-02T08:15:20.284Z,13.7
2022-11-02T08:18:08.567Z,18.4
2022-11-02T08:21:00.259Z,11.6
2022-11-02T08:23:47.980Z,16.8
2022-11-02T08:26:36.340Z,11.5
2022-11-02T08:29:25.283Z,14.9
2022-11-02T08:32:13.941Z,10.4
2022-11-02T08:35:01.548Z,13.2
2022-11-02T08:37:49.486Z,12.6
2022-11-02T08:40:39.845Z,10.1
2022-11-02T08:43:29.494Z,15.3
2022-11-02T08:46:17.662Z,13.8
2022-11-02T08:49:05.417Z,16.1
2022-11-02T08:51:52.987Z,10.3
2022-11-02T08:54:40.546Z,9.4
2022-11-02T08:57:28.806Z,9.7
2022-11-02T09:00:16.330Z,10
2022-11-02T09:03:06.558Z,11
2022-11-02T09:05:56.711Z,12
2022-11-02T09:08:46.594Z,7.6
2022-11-02T09:11:34.177Z,9
2022-11-02T09:14:21.936Z,9
2022-11-02T09:17:09.598Z,10.5
2022-11-02T09:19:57.147Z,9.8
2022-11-02T09:22:44.695Z,11.3
2022-11-02T09:25:32.800Z,9.8
2022-11-02T09:28:20.339Z,10.3
2022-11-02T09:31:10.752Z,15.2
2022-11-02T09:33:59.390Z,7.7
2022-11-02T09:36:47.098Z,10.1
2022-11-02T09:39:34.736Z,11.5
2022-11-02T09:42:22.326Z,7.7
2022-11-02T09:45:17.061Z,9.9
2022-11-02T09:48:18.023Z,8.6
2022-11-02T09:51:13.112Z,10.2
2022-11-02T09:54:04.760Z,8.2
2022-11-02T09:56:59.365Z,8.3
2022-11-02T09:59:51.237Z,12.9
2022-11-02T10:02:38.921Z,8.8
2022-11-02T10:05:40.548Z,10.4
2022-11-02T10:08:36.368Z,17.9
2022-11-02T10:11:33.632Z,6.5
2022-11-02T10:14:29.806Z,7.7
2022-11-02T10:17:22.883Z,11.9
2022-11-02T10:20:14.204Z,11.8
2022-11-02T10:23:10.008Z,8.9
2022-11-02T10:26:04.696Z,7.5
2022-11-02T10:28:58.877Z,10.1
2022-11-02T10:31:51.943Z,9.1
2022-11-02T10:34:39.633Z,6.4
2022-11-02T10:37:29.439Z,15.3
2022-11-02T10:40:30.404Z,8.6
2022-11-02T10:43:31.906Z,7.8
2022-11-02T10:46:33.199Z,7.7
2022-11-02T10:49:32.112Z,8.8
2022-11-02T10:52:41.507Z,10.5
2022-11-02T10:55:31.142Z,6.4
2022-11-02T10:58:28.571Z,12.3
2022-11-02T11:01:18.812Z,9.8
2022-11-02T11:04:06.575Z,13.9
2022-11-02T11:07:07.496Z,9.6
2022-11-02T11:10:03.459Z,10.8
2022-11-02T11:12:59.700Z,8.7
2022-11-02T11:15:49.093Z,10.7
2022-11-02T11:22:18.880Z,8.6
2022-11-02T11:25:12.520Z,11.1
2022-11-02T11:28:07.760Z,8.8
2022-11-02T11:31:08.256Z,7.5
2022-11-02T11:33:59.502Z,7.4
2022-11-02T11:36:47.418Z,8.4
2022-11-02T11:39:35.278Z,11.7
2022-11-02T11:42:25.616Z,7.2
2022-11-02T11:45:17.254Z,6.9
2022-11-02T11:48:08.720Z,7.7
2022-11-02T11:51:11.754Z,8.9
2022-11-02T11:54:20.364Z,7.8
2022-11-02T11:57:11.992Z,8.3
2022-11-02T12:00:09.316Z,6.3
2022-11-02T12:03:13.488Z,8.3
2022-11-02T12:06:01.150Z,5.6
2022-11-02T12:09:04.116Z,7.1
2022-11-02T12:12:01.700Z,5.9
2022-11-02T12:15:06.578Z,8.4
2022-11-02T12:18:12.530Z,8.3
2022-11-02T12:21:19.016Z,8.4
2022-11-02T12:24:24.907Z,13.6
2022-11-02T12:27:30.044Z,9.3
2022-11-02T12:30:28.397Z,8.3
2022-11-02T12:33:30.627Z,9.4
2022-11-02T12:36:29.703Z,7.6
2022-11-02T12:39:34.640Z,8.5
2022-11-02T12:42:42.213Z,10.5
2022-11-02T12:45:41.124Z,6.5
2022-11-02T12:48:35.220Z,9.2
2022-11-02T12:51:34.779Z,7.5
2022-11-02T12:54:30.774Z,8.4
2022-11-02T12:57:25.440Z,10.6
2022-11-02T13:00:20.215Z,10.7
2022-11-02T13:03:09.081Z,9.2
2022-11-02T13:06:08.886Z,9.7
2022-11-02T13:09:01.354Z,7.8
2022-11-02T13:11:55.020Z,10.5
2022-11-02T13:14:48.265Z,8
2022-11-02T13:17:38.642Z,7.8
2022-11-02T13:20:29.688Z,7.9
2022-11-02T13:23:25.154Z,7.7
2022-11-02T13:26:20.659Z,9.8
2022-11-02T13:29:14.823Z,12.2
2022-11-02T13:32:07.572Z,12.4
2022-11-02T13:35:00.670Z,6.7
2022-11-02T13:37:59.173Z,8
2022-11-02T13:40:56.560Z,9.8
2022-11-02T13:43:58.756Z,6.7
2022-11-02T13:47:17.003Z,8.2
2022-11-02T13:50:21.447Z,5.5
2022-11-02T13:53:11.487Z,10.4
2022-11-02T13:56:03.432Z,11.3
2022-11-02T13:58:55.117Z,9.4
2022-11-02T14:01:47.149Z,8.8
2022-11-02T14:04:39.568Z,7.6
2022-11-02T14:07:29.341Z,7.8
2022-11-02T14:10:23.748Z,8.6
2022-11-02T14:13:13.459Z,8.5
2022-11-02T14:16:02.302Z,6.3
2022-11-02T14:18:50.783Z,6.8
2022-11-02T14:21:59.153Z,8.3
2022-11-02T14:24:56.146Z,8.4
2022-11-02T14:28:07.278Z,7.6
2022-11-02T14:31:17.294Z,11.1
2022-11-02T14:34:29.714Z,7.6
2022-11-02T14:37:30.795Z,8.6
2022-11-02T14:40:33.773Z,8.9
2022-11-02T14:43:32.001Z,7.8
2022-11-02T14:46:42.349Z,5.4
2022-11-02T14:49:41.488Z,10.4
2022-11-02T14:52:35.692Z,4.5
2022-11-02T14:55:25.920Z,9.6
2022-11-02T14:58:16.816Z,9.2
2022-11-02T15:01:06.424Z,8.1
2022-11-02T15:03:59.652Z,6.8
2022-11-02T15:06:53.213Z,7.8
2022-11-02T15:09:44.790Z,10.9
2022-11-02T15:12:43.147Z,13.2
2022-11-02T15:15:32.457Z,11.2
2022-11-02T15:18:21.011Z,9.5
2022-11-02T15:21:17.141Z,7.3
2022-11-02T15:24:16.964Z,12.1
2022-11-02T15:27:18.210Z,8
2022-11-02T15:30:06.973Z,8.1
2022-11-02T15:33:01.900Z,7.4
2022-11-02T15:35:51.970Z,10.1
2022-11-02T15:38:40.621Z,12.3
2022-11-02T15:41:33.453Z,8.8
2022-11-02T15:44:28.718Z,8.3
2022-11-02T15:47:40.194Z,9.1
2022-11-02T15:50:39.471Z,8.3
2022-11-02T15:53:34.156Z,7.6
2022-11-02T15:56:34.956Z,12
2022-11-02T15:59:34.300Z,11.2
2022-11-02T16:02:51.706Z,8.4
2022-11-02T16:05:39.688Z,12.8
2022-11-02T16:08:30.481Z,8.5
2022-11-02T16:11:22.481Z,8.5
2022-11-02T16:14:10.303Z,10.3
2022-11-02T16:17:02.659Z,9.3
2022-11-02T16:19:50.475Z,12.5
2022-11-02T16:22:54.155Z,9
2022-11-02T16:25:45.471Z,10.7
2022-11-02T16:28:35.941Z,9.5
2022-11-02T16:31:24.560Z,9.5
2022-11-02T16:34:15.821Z,11.9
2022-11-02T16:37:10.243Z,12.1
2022-11-02T16:39:59.772Z,12.7
2022-11-02T16:42:47.433Z,10.1
2022-11-02T16:45:42.092Z,12.3
2022-11-02T16:48:35.423Z,11
2022-11-02T16:51:23.148Z,7.3
2022-11-02T16:54:12.973Z,8.1
2022-11-02T16:57:12.207Z,9.2
2022-11-02T17:00:04.692Z,11.4
2022-11-02T17:03:03.701Z,12.1
2022-11-02T17:05:54.612Z,14
2022-11-02T17:08:44.321Z,11.4
2022-11-02T17:11:38.074Z,9.8
2022-11-02T17:14:28.556Z,12.9
2022-11-02T17:17:17.452Z,10.7
2022-11-02T17:20:24.658Z,11.3
2022-11-02T17:23:13.153Z,14.4
2022-11-02T17:26:17.580Z,8.9
2022-11-02T17:29:16.456Z,10.3
2022-11-02T17:32:25.448Z,12.3
2022-11-02T17:35:14.548Z,12.9
2022-11-02T17:38:02.640Z,13.1
2022-11-02T17:40:50.431Z,12.8
2022-11-02T17:43:38.960Z,10.4
2022-11-02T17:46:31.604Z,8.6
2022-11-02T17:49:19.205Z,14.4
2022-11-02T17:52:07.078Z,14.9
2022-11-02T17:54:57.967Z,10.1
2022-11-02T17:57:45.782Z,9.8
2022-11-02T18:00:33.708Z,11.3
2022-11-02T18:03:25.480Z,10.2
2022-11-02T18:06:16.488Z,12.7
2022-11-02T18:09:04.056Z,13.6
2022-11-02T18:12:09.221Z,10.4
2022-11-02T18:14:58.404Z,10.9
2022-11-02T18:17:45.970Z,12
2022-11-02T18:20:38.657Z,14.6
2022-11-02T18:23:29.120Z,13.1
2022-11-02T18:26:17.706Z,13.3
2022-11-02T18:29:05.371Z,7.9
2022-11-02T18:31:52.928Z,7.8
2022-11-02T18:34:40.972Z,10.2
2022-11-02T18:37:28.925Z,9.4
2022-11-02T18:40:17.350Z,14.1
2022-11-02T18:43:06.075Z,12.4
2022-11-02T18:45:53.981Z,11.7
2022-11-02T18:48:45.602Z,11.4
2022-11-02T18:51:33.596Z,13.4
2022-11-02T18:54:21.274Z,11.4
2022-11-02T18:57:08.775Z,10.7
2022-11-02T18:59:56.680Z,10.2
2022-11-02T19:02:44.294Z,12.5
2022-11-02T19:05:31.824Z,13
2022-11-02T19:08:51.257Z,13
2022-11-02T19:12:10.288Z,11.7
2022-11-02T19:15:01.327Z,13.7
2022-11-02T19:17:54.893Z,10.4
2022-11-02T19:20:42.472Z,16.3
2022-11-02T19:23:29.957Z,16.5
2022-11-02T19:26:17.620Z,15.6
2022-11-02T19:29:06.531Z,15.2
2022-11-02T19:31:54.597Z,14.3
2022-11-02T19:34:42.266Z,14.9
2022-11-02T19:37:34.373Z,12.9
2022-11-02T19:40:22.341Z,16.1
2022-11-02T19:43:09.978Z,17.3
2022-11-02T19:45:57.614Z,14.2
2022-11-02T19:48:46.004Z,21.5
2022-11-02T19:51:34.439Z,22.7
2022-11-02T19:54:23.350Z,17.9
2022-11-02T19:57:10.935Z,21.7
2022-11-02T19:59:58.853Z,19.3
2022-11-02T20:02:46.559Z,14.6
2022-11-02T20:05:34.984Z,16.5
2022-11-02T20:08:22.637Z,16.7
2022-11-02T20:11:11.198Z,13.9
2022-11-02T20:14:01.226Z,17
2022-11-02T20:17:04.356Z,15.7
2022-11-02T20:19:58.500Z,19.3
2022-11-02T20:22:46.161Z,16.8
2022-11-02T20:25:34.513Z,15.9
2022-11-02T20:28:23.367Z,20.4
2022-11-02T20:31:10.805Z,16.2
2022-11-02T20:34:00.854Z,21.8
2022-11-02T20:36:51.055Z,19.5
2022-11-02T20:39:38.804Z,19
2022-11-02T20:42:26.735Z,16.7
2022-11-02T20:45:15.360Z,14.5
2022-11-02T20:48:03.575Z,15.4
2022-11-02T20:50:51.792Z,22.3
2022-11-02T20:53:39.299Z,15.2
2022-11-02T20:56:27.047Z,17.5
2022-11-02T20:59:15.672Z,16.2
2022-11-02T21:02:03.955Z,16.5
2022-11-02T21:04:54.342Z,19.4
2022-11-02T21:07:41.907Z,16.7
2022-11-02T21:10:29.418Z,20.5
2022-11-02T21:13:16.967Z,15.5
2022-11-02T21:16:35.846Z,15.7
2022-11-02T21:19:23.371Z,14.8
2022-11-02T21:22:11.005Z,19.6
2022-11-02T21:24:58.559Z,13.5
2022-11-02T21:27:46.159Z,17.4
2022-11-02T21:30:35.158Z,13.3
2022-11-02T21:33:22.599Z,18.2
2022-11-02T21:36:10.242Z,14.1
2022-11-02T21:38:58.187Z,16.8
2022-11-02T21:41:46.217Z,18.7
2022-11-02T21:44:33.900Z,13.4
2022-11-02T21:47:21.516Z,14.7
2022-11-02T21:50:10.405Z,13.1
2022-11-02T21:52:58.312Z,17.6
2022-11-02T21:55:45.869Z,9.6
2022-11-02T21:58:44.879Z,18.5
2022-11-02T22:01:34.437Z,11.7
2022-11-02T22:04:29.730Z,17.3
2022-11-02T22:07:17.233Z,13
2022-11-02T22:10:05.063Z,12
2022-11-02T22:12:53.193Z,15.1
2022-11-02T22:16:12.322Z,15.7
2022-11-02T22:19:02.670Z,13.3
2022-11-02T22:21:51.982Z,11.9
2022-11-02T22:24:44.520Z,17.5
2022-11-02T22:27:32.507Z,18.2
2022-11-02T22:30:20.071Z,11.8
2022-11-02T22:33:09.218Z,18.4
2022-11-02T22:35:56.736Z,16.3
2022-11-02T22:38:44.329Z,16.4
2022-11-02T22:41:33.420Z,14
2022-11-02T22:44:23.956Z,15.3
2022-11-02T22:47:11.456Z,18
2022-11-02T22:49:59.003Z,14
2022-11-02T22:52:46.575Z,17.6
2022-11-02T22:55:34.137Z,17
2022-11-02T22:58:21.685Z,20.8
2022-11-02T23:01:09.416Z,17.6
2022-11-02T23:03:58.852Z,15.3
2022-11-02T23:06:47.354Z,17.1
2022-11-02T23:09:34.912Z,14.7
2022-11-02T23:12:22.474Z,16.3
2022-11-02T23:15:10.112Z,13.9
2022-11-02T23:17:57.789Z,13
2022-11-02T23:20:45.297Z,12.5
2022-11-02T23:23:36.943Z,13.8
2022-11-02T23:26:56.058Z,15.7
2022-11-02T23:29:43.722Z,14.8
2022-11-02T23:33:02.949Z,17
2022-11-02T23:35:50.728Z,15.4
2022-11-02T23:39:10.081Z,16
2022-11-02T23:42:33.307Z,15.7
2022-11-02T23:45:21.296Z,17.9
2022-11-02T23:48:09.031Z,18.2
2022-11-02T23:50:56.672Z,18.9
2022-11-02T23:54:16.445Z,20.3
2022-11-02T23:57:35.427Z,17.8
